sensor_id;sensor_type;location;lat;lon;timestamp;pressure;altitude;pressure_sealevel;temperature;humidity
61039;BME280;46919;45.816;3.104;2023-05-24T00:00:03;98009.06;;;14.14;98.64
61039;BME280;46919;45.816;3.104;2023-05-24T00:02:30;98010.97;;;14.13;98.49
61039;BME280;46919;45.816;3.104;2023-05-24T00:04:56;98008.00;;;14.15;99.05
61039;BME280;46919;45.816;3.104;2023-05-24T00:07:25;98005.28;;;14.15;99.15
61039;BME280;46919;45.816;3.104;2023-05-24T00:09:50;97999.84;;;14.15;99.33
61039;BME280;46919;45.816;3.104;2023-05-24T00:12:16;98005.53;;;14.13;99.07
61039;BME280;46919;45.816;3.104;2023-05-24T00:14:41;98003.06;;;14.12;99.69
61039;BME280;46919;45.816;3.104;2023-05-24T00:17:07;98005.53;;;14.13;99.79
61039;BME280;46919;45.816;3.104;2023-05-24T00:19:32;98010.66;;;14.10;99.55
61039;BME280;46919;45.816;3.104;2023-05-24T00:21:58;98016.09;;;14.10;99.51
61039;BME280;46919;45.816;3.104;2023-05-24T00:24:23;98013.84;;;14.07;99.76
61039;BME280;46919;45.816;3.104;2023-05-24T00:26:49;98011.00;;;14.02;99.85
61039;BME280;46919;45.816;3.104;2023-05-24T00:29:14;98009.63;;;13.99;99.82
61039;BME280;46919;45.816;3.104;2023-05-24T00:31:40;98001.00;;;14.02;99.53
61039;BME280;46919;45.816;3.104;2023-05-24T00:34:05;98002.22;;;13.94;100.00
61039;BME280;46919;45.816;3.104;2023-05-24T00:36:31;98001.59;;;13.92;100.00
61039;BME280;46919;45.816;3.104;2023-05-24T00:38:57;98001.03;;;13.90;100.00
61039;BME280;46919;45.816;3.104;2023-05-24T00:41:22;97996.56;;;13.84;100.00
61039;BME280;46919;45.816;3.104;2023-05-24T00:43:48;97996.16;;;13.92;100.00
61039;BME280;46919;45.816;3.104;2023-05-24T00:46:32;97994.78;;;13.90;100.00
61039;BME280;46919;45.816;3.104;2023-05-24T00:48:59;97996.16;;;13.92;100.00
61039;BME280;46919;45.816;3.104;2023-05-24T00:51:26;97998.41;;;13.95;100.00
61039;BME280;46919;45.816;3.104;2023-05-24T00:53:52;97998.66;;;13.94;100.00
61039;BME280;46919;45.816;3.104;2023-05-24T00:56:18;97998.88;;;13.92;100.00
61039;BME280;46919;45.816;3.104;2023-05-24T00:58:44;97997.34;;;13.97;100.00
61039;BME280;46919;45.816;3.104;2023-05-24T01:01:10;97997.25;;;13.91;100.00
61039;BME280;46919;45.816;3.104;2023-05-24T01:03:36;97989.94;;;13.92;100.00
61039;BME280;46919;45.816;3.104;2023-05-24T01:06:05;97989.69;;;13.93;100.00
61039;BME280;46919;45.816;3.104;2023-05-24T01:11:19;97992.88;;;13.90;100.00
61039;BME280;46919;45.816;3.104;2023-05-24T01:14:25;97990.81;;;13.81;100.00
61039;BME280;46919;45.816;3.104;2023-05-24T01:27:21;97987.16;;;13.75;100.00
61039;BME280;46919;45.816;3.104;2023-05-24T01:29:47;97988.34;;;13.79;100.00
61039;BME280;46919;45.816;3.104;2023-05-24T01:32:18;97983.84;;;13.85;100.00
61039;BME280;46919;45.816;3.104;2023-05-24T01:34:43;97980.75;;;13.81;100.00
61039;BME280;46919;45.816;3.104;2023-05-24T01:37:09;97969.91;;;13.81;100.00
61039;BME280;46919;45.816;3.104;2023-05-24T01:39:35;97975.69;;;13.85;100.00
61039;BME280;46919;45.816;3.104;2023-05-24T01:45:22;97977.47;;;13.79;100.00
61039;BME280;46919;45.816;3.104;2023-05-24T01:50:44;97972.28;;;13.77;100.00
61039;BME280;46919;45.816;3.104;2023-05-24T01:53:12;97972.53;;;13.76;100.00
61039;BME280;46919;45.816;3.104;2023-05-24T01:55:41;97973.34;;;13.76;100.00
61039;BME280;46919;45.816;3.104;2023-05-24T01:58:08;97975.56;;;13.80;100.00
61039;BME280;46919;45.816;3.104;2023-05-24T02:00:34;97976.16;;;13.82;100.00
61039;BME280;46919;45.816;3.104;2023-05-24T02:03:00;97968.50;;;13.79;100.00
61039;BME280;46919;45.816;3.104;2023-05-24T02:05:31;97976.53;;;13.73;100.00
61039;BME280;46919;45.816;3.104;2023-05-24T02:07:57;97971.38;;;13.72;100.00
61039;BME280;46919;45.816;3.104;2023-05-24T02:10:22;97966.75;;;13.72;100.00
61039;BME280;46919;45.816;3.104;2023-05-24T02:12:48;97964.84;;;13.73;100.00
61039;BME280;46919;45.816;3.104;2023-05-24T02:15:13;97968.38;;;13.73;100.00
61039;BME280;46919;45.816;3.104;2023-05-24T02:17:40;97970.28;;;13.73;100.00
61039;BME280;46919;45.816;3.104;2023-05-24T02:20:07;97967.25;;;13.69;100.00
61039;BME280;46919;45.816;3.104;2023-05-24T02:22:33;97966.44;;;13.69;100.00
61039;BME280;46919;45.816;3.104;2023-05-24T02:24:59;97964.44;;;13.64;100.00
61039;BME280;46919;45.816;3.104;2023-05-24T02:27:24;97965.75;;;13.62;100.00
61039;BME280;46919;45.816;3.104;2023-05-24T02:29:49;97960.41;;;13.67;100.00
61039;BME280;46919;45.816;3.104;2023-05-24T02:32:15;97961.47;;;13.66;100.00
61039;BME280;46919;45.816;3.104;2023-05-24T02:34:41;97959.25;;;13.63;100.00
61039;BME280;46919;45.816;3.104;2023-05-24T02:39:42;97966.31;;;13.64;100.00
61039;BME280;46919;45.816;3.104;2023-05-24T02:42:07;97956.53;;;13.63;100.00
61039;BME280;46919;45.816;3.104;2023-05-24T02:44:33;97961.13;;;13.62;100.00
61039;BME280;46919;45.816;3.104;2023-05-24T02:46:59;97953.22;;;13.61;100.00
61039;BME280;46919;45.816;3.104;2023-05-24T02:49:24;97950.25;;;13.62;100.00
61039;BME280;46919;45.816;3.104;2023-05-24T02:51:50;97958.66;;;13.61;100.00
61039;BME280;46919;45.816;3.104;2023-05-24T02:54:15;97956.53;;;13.63;100.00
61039;BME280;46919;45.816;3.104;2023-05-24T02:56:41;97951.09;;;13.63;100.00
61039;BME280;46919;45.816;3.104;2023-05-24T02:59:07;97953.34;;;13.66;100.00
61039;BME280;46919;45.816;3.104;2023-05-24T03:01:32;97945.44;;;13.64;100.00
61039;BME280;46919;45.816;3.104;2023-05-24T03:03:58;97945.06;;;13.61;100.00
61039;BME280;46919;45.816;3.104;2023-05-24T03:06:24;97941.53;;;13.60;100.00
61039;BME280;46919;45.816;3.104;2023-05-24T03:08:49;97933.97;;;13.62;100.00
61039;BME280;46919;45.816;3.104;2023-05-24T03:11:15;97931.00;;;13.64;100.00
61039;BME280;46919;45.816;3.104;2023-05-24T03:13:41;97936.44;;;13.64;100.00
61039;BME280;46919;45.816;3.104;2023-05-24T03:16:06;97929.88;;;13.59;100.00
61039;BME280;46919;45.816;3.104;2023-05-24T03:18:32;97935.28;;;13.59;100.00
61039;BME280;46919;45.816;3.104;2023-05-24T03:20:57;97932.47;;;13.54;100.00
61039;BME280;46919;45.816;3.104;2023-05-24T03:23:23;97932.22;;;13.56;100.00
61039;BME280;46919;45.816;3.104;2023-05-24T03:25:48;97933.06;;;13.56;100.00
61039;BME280;46919;45.816;3.104;2023-05-24T03:28:13;97942.03;;;13.57;100.00
61039;BME280;46919;45.816;3.104;2023-05-24T03:30:39;97938.16;;;13.53;100.00
61039;BME280;46919;45.816;3.104;2023-05-24T03:33:05;97934.84;;;13.51;100.00
61039;BME280;46919;45.816;3.104;2023-05-24T03:35:30;97939.22;;;13.52;100.00
61039;BME280;46919;45.816;3.104;2023-05-24T03:37:56;97934.59;;;13.52;100.00
61039;BME280;46919;45.816;3.104;2023-05-24T03:40:21;97936.19;;;13.48;100.00
61039;BME280;46919;45.816;3.104;2023-05-24T03:42:46;97941.00;;;13.46;100.00
61039;BME280;46919;45.816;3.104;2023-05-24T03:45:12;97945.84;;;13.44;100.00
61039;BME280;46919;45.816;3.104;2023-05-24T03:47:37;97937.13;;;13.42;100.00
61039;BME280;46919;45.816;3.104;2023-05-24T03:50:03;97937.22;;;13.47;100.00
61039;BME280;46919;45.816;3.104;2023-05-24T03:52:28;97936.28;;;13.41;100.00
61039;BME280;46919;45.816;3.104;2023-05-24T03:54:54;97927.34;;;13.41;100.00
61039;BME280;46919;45.816;3.104;2023-05-24T03:57:28;97933.94;;;13.45;100.00
61039;BME280;46919;45.816;3.104;2023-05-24T03:59:54;97932.75;;;13.41;100.00
61039;BME280;46919;45.816;3.104;2023-05-24T04:02:19;97932.19;;;13.39;100.00
61039;BME280;46919;45.816;3.104;2023-05-24T04:04:44;97929.47;;;13.39;100.00
61039;BME280;46919;45.816;3.104;2023-05-24T04:07:10;97939.00;;;13.41;100.00
61039;BME280;46919;45.816;3.104;2023-05-24T04:09:36;97936.06;;;13.43;100.00
61039;BME280;46919;45.816;3.104;2023-05-24T04:12:01;97936.06;;;13.43;100.00
61039;BME280;46919;45.816;3.104;2023-05-24T04:14:27;97932.28;;;13.44;100.00
61039;BME280;46919;45.816;3.104;2023-05-24T04:16:53;97934.50;;;13.47;100.00
61039;BME280;46919;45.816;3.104;2023-05-24T04:19:19;97934.75;;;13.46;100.00
61039;BME280;46919;45.816;3.104;2023-05-24T04:21:44;97941.47;;;13.43;100.00
61039;BME280;46919;45.816;3.104;2023-05-24T04:24:10;97945.75;;;13.39;100.00
61039;BME280;46919;45.816;3.104;2023-05-24T04:26:36;97939.50;;;13.38;100.00
61039;BME280;46919;45.816;3.104;2023-05-24T04:29:02;97947.88;;;13.37;100.00
61039;BME280;46919;45.816;3.104;2023-05-24T04:31:28;97950.34;;;13.38;100.00
61039;BME280;46919;45.816;3.104;2023-05-24T04:33:55;97949.53;;;13.38;100.00
61039;BME280;46919;45.816;3.104;2023-05-24T04:36:21;97957.44;;;13.39;100.00
61039;BME280;46919;45.816;3.104;2023-05-24T04:38:49;97959.91;;;13.41;100.00
61039;BME280;46919;45.816;3.104;2023-05-24T04:41:18;97959.91;;;13.41;100.00
61039;BME280;46919;45.816;3.104;2023-05-24T04:43:43;97958.84;;;13.42;100.00
61039;BME280;46919;45.816;3.104;2023-05-24T04:46:09;97959.91;;;13.41;100.00
61039;BME280;46919;45.816;3.104;2023-05-24T04:48:35;97964.78;;;13.39;100.00
61039;BME280;46919;45.816;3.104;2023-05-24T04:51:00;97956.88;;;13.37;100.00
61039;BME280;46919;45.816;3.104;2023-05-24T04:53:26;97970.19;;;13.39;100.00
61039;BME280;46919;45.816;3.104;2023-05-24T04:55:51;97969.25;;;13.45;100.00
61039;BME280;46919;45.816;3.104;2023-05-24T04:58:17;97961.66;;;13.47;100.00
61039;BME280;46919;45.816;3.104;2023-05-24T05:00:43;97972.63;;;13.52;100.00
61039;BME280;46919;45.816;3.104;2023-05-24T05:03:09;97971.56;;;13.53;100.00
61039;BME280;46919;45.816;3.104;2023-05-24T05:05:35;97969.66;;;13.54;100.00
61039;BME280;46919;45.816;3.104;2023-05-24T05:08:02;97965.41;;;13.58;100.00
61039;BME280;46919;45.816;3.104;2023-05-24T05:10:28;97970.13;;;13.63;100.00
61039;BME280;46919;45.816;3.104;2023-05-24T05:12:54;97971.03;;;13.68;100.00
61039;BME280;46919;45.816;3.104;2023-05-24T05:15:21;97974.81;;;13.67;100.00
61039;BME280;46919;45.816;3.104;2023-05-24T05:17:47;97976.94;;;13.65;100.00
61039;BME280;46919;45.816;3.104;2023-05-24T05:20:12;97978.03;;;13.64;100.00
61039;BME280;46919;45.816;3.104;2023-05-24T05:22:37;97979.31;;;13.62;100.00
61039;BME280;46919;45.816;3.104;2023-05-24T05:25:03;97982.03;;;13.62;100.00
61039;BME280;46919;45.816;3.104;2023-05-24T05:27:29;97974.63;;;13.57;100.00
61039;BME280;46919;45.816;3.104;2023-05-24T05:29:54;97976.03;;;13.59;100.00
61039;BME280;46919;45.816;3.104;2023-05-24T05:32:20;97979.31;;;13.62;100.00
61039;BME280;46919;45.816;3.104;2023-05-24T05:34:45;97976.84;;;13.60;100.00
61039;BME280;46919;45.816;3.104;2023-05-24T05:37:11;97976.50;;;13.56;100.00
61039;BME280;46919;45.816;3.104;2023-05-24T05:39:36;97981.22;;;13.61;100.00
61039;BME280;46919;45.816;3.104;2023-05-24T05:42:01;97980.38;;;13.61;100.00
61039;BME280;46919;45.816;3.104;2023-05-24T05:44:27;97982.50;;;13.58;100.00
61039;BME280;46919;45.816;3.104;2023-05-24T05:46:52;97980.84;;;13.57;100.00
61039;BME280;46919;45.816;3.104;2023-05-24T05:49:18;97983.56;;;13.57;100.00
61039;BME280;46919;45.816;3.104;2023-05-24T05:51:44;97977.91;;;13.59;100.00
61039;BME280;46919;45.816;3.104;2023-05-24T05:54:10;97980.25;;;13.67;100.00
61039;BME280;46919;45.816;3.104;2023-05-24T05:56:40;97982.84;;;13.62;100.00
61039;BME280;46919;45.816;3.104;2023-05-24T05:59:13;97977.41;;;13.62;100.00
61039;BME280;46919;45.816;3.104;2023-05-24T06:01:43;97976.75;;;13.55;100.00
61039;BME280;46919;45.816;3.104;2023-05-24T06:04:11;97979.22;;;13.56;100.00
61039;BME280;46919;45.816;3.104;2023-05-24T06:06:36;97980.63;;;13.59;100.00
61039;BME280;46919;45.816;3.104;2023-05-24T06:09:02;97980.28;;;13.55;100.00
61039;BME280;46919;45.816;3.104;2023-05-24T06:11:27;97980.75;;;13.52;100.00
61039;BME280;46919;45.816;3.104;2023-05-24T06:13:53;97983.00;;;13.55;100.00
61039;BME280;46919;45.816;3.104;2023-05-24T06:16:18;97978.53;;;13.49;100.00
61039;BME280;46919;45.816;3.104;2023-05-24T06:18:45;97980.53;;;13.54;100.00
61039;BME280;46919;45.816;3.104;2023-05-24T06:21:11;97982.59;;;13.64;100.00
61039;BME280;46919;45.816;3.104;2023-05-24T06:23:38;97978.84;;;13.65;100.00
61039;BME280;46919;45.816;3.104;2023-05-24T06:26:03;97976.69;;;13.67;100.00
61039;BME280;46919;45.816;3.104;2023-05-24T06:28:28;97979.06;;;13.63;100.00
61039;BME280;46919;45.816;3.104;2023-05-24T06:30:54;97984.19;;;13.59;100.00
61039;BME280;46919;45.816;3.104;2023-05-24T06:33:20;97982.19;;;13.55;100.00
61039;BME280;46919;45.816;3.104;2023-05-24T06:35:46;97980.75;;;13.52;100.00
61039;BME280;46919;45.816;3.104;2023-05-24T06:38:11;97983.56;;;13.57;100.00
61039;BME280;46919;45.816;3.104;2023-05-24T06:40:37;97987.22;;;13.63;100.00
61039;BME280;46919;45.816;3.104;2023-05-24T06:43:03;97990.09;;;13.56;100.00
61039;BME280;46919;45.816;3.104;2023-05-24T06:45:29;97981.84;;;13.51;100.00
61039;BME280;46919;45.816;3.104;2023-05-24T06:47:54;97989.59;;;13.59;100.00
61039;BME280;46919;45.816;3.104;2023-05-24T06:50:19;97993.94;;;13.61;100.00
61039;BME280;46919;45.816;3.104;2023-05-24T06:52:45;97995.53;;;13.56;100.00
61039;BME280;46919;45.816;3.104;2023-05-24T06:55:10;97998.56;;;13.60;100.00
61039;BME280;46919;45.816;3.104;2023-05-24T06:57:36;97994.06;;;13.66;100.00
61039;BME280;46919;45.816;3.104;2023-05-24T07:00:01;98002.88;;;13.73;100.00
61039;BME280;46919;45.816;3.104;2023-05-24T07:02:31;98009.59;;;13.82;100.00
61039;BME280;46919;45.816;3.104;2023-05-24T07:04:56;98007.44;;;13.84;100.00
61039;BME280;46919;45.816;3.104;2023-05-24T07:07:22;98009.59;;;13.82;100.00
61039;BME280;46919;45.816;3.104;2023-05-24T07:09:47;98013.97;;;13.83;100.00
61039;BME280;46919;45.816;3.104;2023-05-24T07:12:13;98019.47;;;13.88;100.00
61039;BME280;46919;45.816;3.104;2023-05-24T07:14:38;98016.03;;;13.93;100.00
61039;BME280;46919;45.816;3.104;2023-05-24T07:17:03;98014.94;;;13.94;100.00
61039;BME280;46919;45.816;3.104;2023-05-24T07:19:30;98007.16;;;13.98;100.00
61039;BME280;46919;45.816;3.104;2023-05-24T07:21:58;98015.31;;;13.98;100.00
61039;BME280;46919;45.816;3.104;2023-05-24T07:24:23;98009.22;;;14.07;99.75
61039;BME280;46919;45.816;3.104;2023-05-24T07:26:50;98008.59;;;14.17;99.51
61039;BME280;46919;45.816;3.104;2023-05-24T07:29:16;98012.97;;;14.18;99.28
61039;BME280;46919;45.816;3.104;2023-05-24T07:31:41;98015.44;;;14.20;99.27
61039;BME280;46919;45.816;3.104;2023-05-24T07:34:07;98020.03;;;14.19;99.38
61039;BME280;46919;45.816;3.104;2023-05-24T07:36:33;98024.31;;;14.15;99.43
61039;BME280;46919;45.816;3.104;2023-05-24T07:38:58;98021.34;;;14.17;99.37
61039;BME280;46919;45.816;3.104;2023-05-24T07:41:26;98027.53;;;14.12;98.92
61039;BME280;46919;45.816;3.104;2023-05-24T07:43:53;98032.38;;;14.10;99.07
61039;BME280;46919;45.816;3.104;2023-05-24T07:46:19;98031.50;;;14.21;99.17
61039;BME280;46919;45.816;3.104;2023-05-24T07:48:44;98031.16;;;14.35;98.61
61039;BME280;46919;45.816;3.104;2023-05-24T07:51:10;98031.41;;;14.33;97.64
61039;BME280;46919;45.816;3.104;2023-05-24T07:53:36;98028.94;;;14.31;97.00
61039;BME280;46919;45.816;3.104;2023-05-24T07:56:02;98035.56;;;14.36;97.31
61039;BME280;46919;45.816;3.104;2023-05-24T07:58:27;98037.91;;;14.32;96.53
61039;BME280;46919;45.816;3.104;2023-05-24T08:00:53;98048.88;;;14.20;96.50
61039;BME280;46919;45.816;3.104;2023-05-24T08:03:18;98044.25;;;14.21;97.28
61039;BME280;46919;45.816;3.104;2023-05-24T08:05:44;98043.75;;;14.24;96.80
61039;BME280;46919;45.816;3.104;2023-05-24T08:08:09;98045.09;;;14.21;96.70
61039;BME280;46919;45.816;3.104;2023-05-24T08:10:35;98043.59;;;14.30;96.69
61039;BME280;46919;45.816;3.104;2023-05-24T08:13:01;98039.75;;;14.43;96.84
61039;BME280;46919;45.816;3.104;2023-05-24T08:15:27;98048.16;;;14.42;96.82
61039;BME280;46919;45.816;3.104;2023-05-24T08:17:52;98046.66;;;14.34;97.41
61039;BME280;46919;45.816;3.104;2023-05-24T08:20:18;98043.09;;;14.34;97.12
61039;BME280;46919;45.816;3.104;2023-05-24T08:22:43;98046.75;;;14.39;97.36
61039;BME280;46919;45.816;3.104;2023-05-24T08:25:09;98045.34;;;14.37;97.46
61039;BME280;46919;45.816;3.104;2023-05-24T08:27:35;98044.84;;;14.40;97.46
61039;BME280;46919;45.816;3.104;2023-05-24T08:30:01;98049.56;;;14.44;96.79
61039;BME280;46919;45.816;3.104;2023-05-24T08:32:28;98046.59;;;14.46;96.97
61039;BME280;46919;45.816;3.104;2023-05-24T08:34:54;98050.41;;;14.45;97.07
61039;BME280;46919;45.816;3.104;2023-05-24T08:37:20;98042.47;;;14.43;96.97
61039;BME280;46919;45.816;3.104;2023-05-24T08:39:47;98043.28;;;14.44;97.28
61039;BME280;46919;45.816;3.104;2023-05-24T08:42:13;98039.69;;;14.55;97.13
61039;BME280;46919;45.816;3.104;2023-05-24T08:44:47;98041.44;;;14.61;96.22
61039;BME280;46919;45.816;3.104;2023-05-24T08:47:16;98039.88;;;14.65;95.67
61039;BME280;46919;45.816;3.104;2023-05-24T08:49:42;98045.91;;;14.67;94.37
61039;BME280;46919;45.816;3.104;2023-05-24T08:52:08;98047.94;;;14.60;93.52
61039;BME280;46919;45.816;3.104;2023-05-24T08:54:36;98049.69;;;14.66;93.53
61039;BME280;46919;45.816;3.104;2023-05-24T08:57:02;98051.91;;;14.70;93.26
61039;BME280;46919;45.816;3.104;2023-05-24T08:59:27;98053.38;;;14.77;92.47
61039;BME280;46919;45.816;3.104;2023-05-24T09:01:53;98053.06;;;14.74;91.98
61039;BME280;46919;45.816;3.104;2023-05-24T09:04:20;98053.38;;;14.77;91.66
61039;BME280;46919;45.816;3.104;2023-05-24T09:06:47;98057.34;;;14.87;91.29
61039;BME280;46919;45.816;3.104;2023-05-24T09:09:15;98049.75;;;14.89;90.59
61039;BME280;46919;45.816;3.104;2023-05-24T09:11:43;98050.31;;;14.91;89.43
61039;BME280;46919;45.816;3.104;2023-05-24T09:14:10;98054.63;;;15.03;90.39
61039;BME280;46919;45.816;3.104;2023-05-24T09:16:35;98054.69;;;15.09;89.73
61039;BME280;46919;45.816;3.104;2023-05-24T09:19:01;98058.19;;;15.26;89.27
61039;BME280;46919;45.816;3.104;2023-05-24T09:21:27;98049.19;;;15.26;88.94
61039;BME280;46919;45.816;3.104;2023-05-24T09:23:54;98046.22;;;15.27;88.34
61039;BME280;46919;45.816;3.104;2023-05-24T09:26:20;98049.09;;;15.37;88.25
61039;BME280;46919;45.816;3.104;2023-05-24T09:28:46;98043.34;;;15.56;87.13
61039;BME280;46919;45.816;3.104;2023-05-24T09:31:12;98044.09;;;15.73;85.77
61039;BME280;46919;45.816;3.104;2023-05-24T09:33:38;98036.44;;;15.92;85.02
61039;BME280;46919;45.816;3.104;2023-05-24T09:36:05;98046.66;;;16.07;83.96
61039;BME280;46919;45.816;3.104;2023-05-24T09:38:31;98041.03;;;16.19;83.16
61039;BME280;46919;45.816;3.104;2023-05-24T09:41:02;98044.78;;;16.35;82.91
61039;BME280;46919;45.816;3.104;2023-05-24T09:43:28;98037.81;;;16.50;82.34
61039;BME280;46919;45.816;3.104;2023-05-24T09:45:54;98039.41;;;16.45;82.08
61039;BME280;46919;45.816;3.104;2023-05-24T09:48:22;98052.28;;;16.23;81.80
61039;BME280;46919;45.816;3.104;2023-05-24T09:51:06;98050.47;;;16.06;82.27
61039;BME280;46919;45.816;3.104;2023-05-24T09:53:36;98042.25;;;16.01;81.99
61039;BME280;46919;45.816;3.104;2023-05-24T09:56:05;98053.16;;;16.01;82.08
61039;BME280;46919;45.816;3.104;2023-05-24T09:58:34;98057.47;;;15.97;82.15
61039;BME280;46919;45.816;3.104;2023-05-24T10:01:08;98055.69;;;15.86;82.30
61039;BME280;46919;45.816;3.104;2023-05-24T10:03:51;98052.97;;;15.86;82.55
61039;BME280;46919;45.816;3.104;2023-05-24T10:06:17;98053.09;;;15.96;82.50
61039;BME280;46919;45.816;3.104;2023-05-24T10:08:42;98054.91;;;16.12;82.08
61039;BME280;46919;45.816;3.104;2023-05-24T10:11:08;98056.09;;;16.22;81.61
61039;BME280;46919;45.816;3.104;2023-05-24T10:13:35;98051.16;;;16.19;81.23
61039;BME280;46919;45.816;3.104;2023-05-24T10:16:01;98053.72;;;16.30;81.94
61039;BME280;46919;45.816;3.104;2023-05-24T10:18:27;98055.47;;;16.42;81.85
61039;BME280;46919;45.816;3.104;2023-05-24T10:20:54;98051.91;;;16.41;81.67
61039;BME280;46919;45.816;3.104;2023-05-24T10:23:23;98044.34;;;16.48;81.49
61039;BME280;46919;45.816;3.104;2023-05-24T10:26:03;98049.31;;;16.57;81.13
61039;BME280;46919;45.816;3.104;2023-05-24T10:28:31;98047.63;;;16.51;80.22
61039;BME280;46919;45.816;3.104;2023-05-24T10:31:09;98043.47;;;16.75;80.26
61039;BME280;46919;45.816;3.104;2023-05-24T10:33:36;98041.72;;;16.91;78.82
61039;BME280;46919;45.816;3.104;2023-05-24T10:36:06;98043.69;;;17.01;78.58
61039;BME280;46919;45.816;3.104;2023-05-24T10:38:34;98037.66;;;16.99;78.83
61039;BME280;46919;45.816;3.104;2023-05-24T10:41:01;98044.75;;;17.00;79.22
61039;BME280;46919;45.816;3.104;2023-05-24T10:43:26;98044.16;;;16.93;78.84
61039;BME280;46919;45.816;3.104;2023-05-24T10:45:52;98041.97;;;16.90;78.71
61039;BME280;46919;45.816;3.104;2023-05-24T10:50:49;98034.06;;;17.41;76.90
61039;BME280;46919;45.816;3.104;2023-05-24T10:53:19;98029.81;;;17.66;75.96
61039;BME280;46919;45.816;3.104;2023-05-24T10:56:00;98031.06;;;18.11;74.05
61039;BME280;46919;45.816;3.104;2023-05-24T11:01:28;98024.00;;;18.56;72.38
61039;BME280;46919;45.816;3.104;2023-05-24T11:09:15;98027.00;;;19.06;71.67
61039;BME280;46919;45.816;3.104;2023-05-24T11:11:43;98013.22;;;19.37;69.80
61039;BME280;46919;45.816;3.104;2023-05-24T11:14:11;98003.53;;;19.65;67.52
61039;BME280;46919;45.816;3.104;2023-05-24T11:16:38;98003.81;;;19.64;67.19
61039;BME280;46919;45.816;3.104;2023-05-24T11:19:36;98017.28;;;19.50;65.45
61039;BME280;46919;45.816;3.104;2023-05-24T11:22:05;98005.22;;;19.46;66.55
61039;BME280;46919;45.816;3.104;2023-05-24T11:24:32;97998.81;;;19.71;65.24
61039;BME280;46919;45.816;3.104;2023-05-24T11:26:58;98001.16;;;19.98;64.05
61039;BME280;46919;45.816;3.104;2023-05-24T11:29:24;98004.34;;;20.16;63.80
61039;BME280;46919;45.816;3.104;2023-05-24T11:31:54;98003.09;;;20.37;63.44
61039;BME280;46919;45.816;3.104;2023-05-24T11:34:22;98003.69;;;20.34;64.44
61039;BME280;46919;45.816;3.104;2023-05-24T11:36:49;98005.47;;;20.15;63.80
61039;BME280;46919;45.816;3.104;2023-05-24T11:39:16;98014.38;;;19.91;64.04
61039;BME280;46919;45.816;3.104;2023-05-24T11:41:42;98008.91;;;19.91;64.22
61039;BME280;46919;45.816;3.104;2023-05-24T11:44:09;98015.28;;;20.26;63.27
61039;BME280;46919;45.816;3.104;2023-05-24T11:46:35;98011.72;;;20.20;63.56
61039;BME280;46919;45.816;3.104;2023-05-24T11:49:03;98013.75;;;20.04;63.86
61039;BME280;46919;45.816;3.104;2023-05-24T11:51:31;98009.25;;;20.24;63.25
61039;BME280;46919;45.816;3.104;2023-05-24T11:53:57;97996.28;;;20.69;62.31
61039;BME280;46919;45.816;3.104;2023-05-24T11:56:28;98004.00;;;20.67;62.43
61039;BME280;46919;45.816;3.104;2023-05-24T11:59:02;98007.22;;;20.40;61.13
61039;BME280;46919;45.816;3.104;2023-05-24T12:01:28;98001.59;;;20.16;62.17
61039;BME280;46919;45.816;3.104;2023-05-24T12:03:54;98006.56;;;20.14;62.68
61039;BME280;46919;45.816;3.104;2023-05-24T12:06:19;97997.78;;;20.17;62.60
61039;BME280;46919;45.816;3.104;2023-05-24T12:08:46;97995.09;;;20.06;61.96
61039;BME280;46919;45.816;3.104;2023-05-24T12:11:13;97987.84;;;19.76;62.63
61039;BME280;46919;45.816;3.104;2023-05-24T12:13:39;97983.72;;;19.79;62.61
61039;BME280;46919;45.816;3.104;2023-05-24T12:16:05;97992.97;;;19.93;62.30
61039;BME280;46919;45.816;3.104;2023-05-24T12:18:31;97989.75;;;19.81;62.32
61039;BME280;46919;45.816;3.104;2023-05-24T12:20:56;97990.59;;;19.71;63.57
61039;BME280;46919;45.816;3.104;2023-05-24T12:23:23;97978.78;;;19.76;63.70
61039;BME280;46919;45.816;3.104;2023-05-24T12:25:49;97972.25;;;19.66;62.05
61039;BME280;46919;45.816;3.104;2023-05-24T12:28:18;97967.25;;;19.84;61.93
61039;BME280;46919;45.816;3.104;2023-05-24T12:30:48;97961.28;;;20.16;60.71
61039;BME280;46919;45.816;3.104;2023-05-24T12:33:13;97960.31;;;20.95;59.55
61039;BME280;46919;45.816;3.104;2023-05-24T12:35:42;97950.66;;;21.51;57.63
61039;BME280;46919;45.816;3.104;2023-05-24T12:38:08;97949.25;;;21.92;56.50
61039;BME280;46919;45.816;3.104;2023-05-24T12:40:35;97957.00;;;22.08;55.14
61039;BME280;46919;45.816;3.104;2023-05-24T12:43:01;97954.31;;;22.22;53.81
61039;BME280;46919;45.816;3.104;2023-05-24T12:45:28;97952.88;;;22.25;53.74
61039;BME280;46919;45.816;3.104;2023-05-24T12:47:55;97954.00;;;22.24;54.17
61039;BME280;46919;45.816;3.104;2023-05-24T12:50:24;97950.69;;;21.70;56.79
61039;BME280;46919;45.816;3.104;2023-05-24T12:52:50;97952.91;;;21.20;55.15
61039;BME280;46919;45.816;3.104;2023-05-24T12:55:23;97956.91;;;20.79;55.91
61039;BME280;46919;45.816;3.104;2023-05-24T12:57:50;97951.84;;;20.62;56.70
61039;BME280;46919;45.816;3.104;2023-05-24T13:00:23;97949.59;;;20.35;57.36
61039;BME280;46919;45.816;3.104;2023-05-24T13:02:49;97957.75;;;20.11;58.32
61039;BME280;46919;45.816;3.104;2023-05-24T13:05:17;97952.34;;;20.00;59.06
61039;BME280;46919;45.816;3.104;2023-05-24T13:07:43;97956.00;;;19.85;59.47
61039;BME280;46919;45.816;3.104;2023-05-24T13:10:09;97946.44;;;19.78;59.00
61039;BME280;46919;45.816;3.104;2023-05-24T13:12:35;97945.16;;;19.60;58.76
61039;BME280;46919;45.816;3.104;2023-05-24T13:15:01;97948.72;;;19.55;58.42
61039;BME280;46919;45.816;3.104;2023-05-24T13:17:26;97943.25;;;19.55;58.18
61039;BME280;46919;45.816;3.104;2023-05-24T13:19:52;97941.31;;;19.61;58.29
61039;BME280;46919;45.816;3.104;2023-05-24T13:22:18;97935.00;;;19.60;58.01
61039;BME280;46919;45.816;3.104;2023-05-24T13:24:44;97933.84;;;19.71;58.66